Time;durP1;ratioP1;P1;durP2;ratioP2;P2;SDS_P1;SDS_P2;PMS_P1;PMS_P2;Temp;Humidity;BMP_temperature;BMP_pressure;BME280_temperature;BME280_humidity;BME280_pressure;Samples;Min_cycle;Max_cycle;Signal;HPM_P1;HPM_P2
2023/10/15 00:00:18;;;;;;;7.13;1.30;;;7.60;99.90;;;;;;5099379;28;20032;-79
2023/10/15 00:02:46;;;;;;;9.32;1.88;;;7.50;99.90;;;;;;5098780;28;20088;-77
2023/10/15 00:05:14;;;;;;;12.15;1.75;;;7.50;99.90;;;;;;5098638;28;20107;-76
2023/10/15 00:07:39;;;;;;;13.65;1.83;;;7.50;99.90;;;;;;5098814;28;20023;-78
2023/10/15 00:10:12;;;;;;;9.77;1.90;;;7.40;99.90;;;;;;5099910;28;20425;-80
2023/10/15 00:12:39;;;;;;;11.50;1.35;;;7.40;99.90;;;;;;5099334;28;20024;-80
2023/10/15 00:15:28;;;;;;;10.52;1.98;;;7.40;99.90;;;;;;5098288;28;20464;-76
2023/10/15 00:17:57;;;;;;;12.25;1.30;;;7.30;99.90;;;;;;5099776;28;20052;-76
2023/10/15 00:20:31;;;;;;;9.68;1.65;;;7.30;99.90;;;;;;5099464;28;20055;-77
2023/10/15 00:23:09;;;;;;;10.38;1.45;;;7.30;99.90;;;;;;5100981;28;20474;-77
2023/10/15 00:25:47;;;;;;;9.43;1.70;;;7.20;99.90;;;;;;5097850;28;20036;-76
2023/10/15 00:28:12;;;;;;;13.90;2.00;;;7.20;99.90;;;;;;5100339;28;20028;-77
2023/10/15 00:30:39;;;;;;;6.90;1.55;;;7.20;99.90;;;;;;5098608;28;20100;-77
2023/10/15 00:33:11;;;;;;;8.73;1.80;;;7.20;99.90;;;;;;5100668;28;20016;-75
2023/10/15 00:35:37;;;;;;;10.70;1.30;;;7.10;99.90;;;;;;5099285;28;20028;-77
2023/10/15 00:38:19;;;;;;;9.68;1.40;;;7.10;99.90;;;;;;5098794;28;20036;-77
2023/10/15 00:40:49;;;;;;;15.65;1.67;;;7.10;99.90;;;;;;5101200;28;20032;-78
2023/10/15 00:43:21;;;;;;;10.07;1.50;;;7.00;99.90;;;;;;5102189;28;20411;-76
2023/10/15 00:45:47;;;;;;;11.73;1.80;;;7.10;99.90;;;;;;5103441;28;20091;-78
2023/10/15 00:48:24;;;;;;;10.32;1.27;;;7.00;99.90;;;;;;5102831;28;20380;-75
2023/10/15 00:50:51;;;;;;;12.40;1.48;;;7.00;99.90;;;;;;5104279;28;20039;-77
2023/10/15 00:53:23;;;;;;;6.45;1.42;;;7.00;99.90;;;;;;5103788;28;20027;-79
2023/10/15 00:56:04;;;;;;;15.18;1.95;;;6.90;99.90;;;;;;5119254;28;20072;-80
2023/10/15 01:01:00;;;;;;;9.15;1.90;;;6.90;99.90;;;;;;5104357;28;20028;-80
2023/10/15 01:03:37;;;;;;;10.57;1.55;;;6.90;99.90;;;;;;5103143;28;20020;-81
2023/10/15 01:06:05;;;;;;;10.60;1.60;;;6.90;99.90;;;;;;5102396;28;20040;-80
2023/10/15 01:08:35;;;;;;;9.40;1.30;;;6.90;99.90;;;;;;5103810;28;20035;-80
2023/10/15 01:11:20;;;;;;;11.70;2.00;;;6.90;99.90;;;;;;5102277;28;20024;-82
2023/10/15 01:13:46;;;;;;;6.65;1.00;;;7.00;99.90;;;;;;5102940;28;20016;-80
2023/10/15 01:16:18;;;;;;;9.10;1.13;;;6.90;99.90;;;;;;5103923;28;20028;-78
2023/10/15 01:21:53;;;;;;;14.95;1.50;;;6.90;99.90;;;;;;5097581;28;20038;-82
2023/10/15 01:24:19;;;;;;;6.35;1.20;;;7.00;99.90;;;;;;5103367;28;20070;-81
2023/10/15 01:29:47;;;;;;;14.18;1.40;;;7.00;99.90;;;;;;5078744;28;20475;-78
2023/10/15 01:32:15;;;;;;;9.35;1.45;;;7.00;99.90;;;;;;5103658;28;20047;-73
2023/10/15 01:34:44;;;;;;;6.70;1.50;;;7.10;99.90;;;;;;5101310;28;20073;-72
2023/10/15 01:39:49;;;;;;;10.70;1.40;;;7.00;99.90;;;;;;5103301;28;20111;-76
2023/10/15 01:50:15;;;;;;;4.77;1.03;;;6.70;99.90;;;;;;5103400;28;20043;-73
2023/10/15 01:52:42;;;;;;;5.88;0.80;;;6.70;99.90;;;;;;5101568;28;20053;-70
2023/10/15 01:55:08;;;;;;;3.45;0.90;;;6.60;99.90;;;;;;5102483;28;20177;-74
2023/10/15 01:57:36;;;;;;;8.40;1.08;;;6.60;99.90;;;;;;5103405;28;20034;-78
2023/10/15 02:00:14;;;;;;;4.78;0.82;;;6.60;99.90;;;;;;5101669;28;20070;-71
2023/10/15 02:02:42;;;;;;;7.78;1.33;;;6.50;99.90;;;;;;5102687;28;20028;-76
2023/10/15 02:05:26;;;;;;;8.77;1.27;;;6.50;99.90;;;;;;5102274;28;20020;-71
2023/10/15 02:07:52;;;;;;;7.57;1.27;;;6.40;99.90;;;;;;5101187;28;20035;-78
2023/10/15 02:10:17;;;;;;;4.68;0.90;;;6.50;99.90;;;;;;5100888;28;20111;-76
2023/10/15 02:12:43;;;;;;;14.13;2.17;;;6.40;99.90;;;;;;5101769;28;20435;-76
2023/10/15 02:15:22;;;;;;;8.70;1.30;;;6.40;99.90;;;;;;5100804;28;20027;-78
2023/10/15 02:17:51;;;;;;;6.30;0.95;;;6.40;99.90;;;;;;5101485;28;20048;-74
2023/10/15 02:20:26;;;;;;;6.35;1.38;;;6.40;99.90;;;;;;5100857;28;20021;-77
2023/10/15 02:22:53;;;;;;;12.38;1.30;;;6.40;99.90;;;;;;5101853;28;20110;-79
2023/10/15 02:25:26;;;;;;;11.40;1.50;;;6.40;99.90;;;;;;5101534;28;20031;-76
2023/10/15 02:27:51;;;;;;;7.22;1.20;;;6.40;99.90;;;;;;5101729;28;20163;-74
2023/10/15 02:30:17;;;;;;;7.07;1.33;;;6.50;99.90;;;;;;5101945;28;20036;-73
2023/10/15 02:32:43;;;;;;;9.90;1.58;;;6.50;99.90;;;;;;5102017;28;20031;-74
2023/10/15 02:35:12;;;;;;;10.43;1.35;;;6.50;99.90;;;;;;5101325;28;20031;-75
2023/10/15 02:37:40;;;;;;;8.30;1.20;;;6.50;99.90;;;;;;5099812;28;20020;-76
2023/10/15 02:40:20;;;;;;;6.25;1.17;;;6.50;99.90;;;;;;5101458;28;20027;-74
2023/10/15 02:42:52;;;;;;;9.93;1.30;;;6.50;99.90;;;;;;5100846;28;20129;-75
2023/10/15 02:45:23;;;;;;;6.30;0.95;;;6.50;99.90;;;;;;5101138;28;21780;-76
2023/10/15 02:47:49;;;;;;;6.95;0.88;;;6.50;99.90;;;;;;5101065;28;20019;-76
2023/10/15 02:50:23;;;;;;;7.53;1.23;;;6.50;99.90;;;;;;5100063;28;20468;-75
2023/10/15 02:52:48;;;;;;;9.68;1.40;;;6.40;99.90;;;;;;5100717;28;20039;-76
2023/10/15 02:55:14;;;;;;;3.58;0.70;;;6.40;99.90;;;;;;5101408;28;20044;-76
2023/10/15 02:57:43;;;;;;;4.60;0.70;;;6.40;99.90;;;;;;5099603;28;20020;-77
2023/10/15 03:00:18;;;;;;;8.00;0.80;;;6.40;99.90;;;;;;5101834;28;20027;-78
2023/10/15 03:02:44;;;;;;;7.18;1.20;;;6.40;99.90;;;;;;5100122;28;20563;-74
2023/10/15 03:05:15;;;;;;;5.15;1.20;;;6.40;99.90;;;;;;5100223;28;20028;-78
2023/10/15 03:07:42;;;;;;;6.32;1.15;;;6.40;99.90;;;;;;5100513;28;20024;-77
2023/10/15 03:10:12;;;;;;;6.50;1.05;;;6.40;99.90;;;;;;5099926;28;20024;-78
2023/10/15 03:12:43;;;;;;;2.70;0.77;;;6.30;99.90;;;;;;5100766;28;20027;-77
2023/10/15 03:15:11;;;;;;;7.22;0.90;;;6.30;99.90;;;;;;5099595;28;20036;-76
2023/10/15 03:17:40;;;;;;;4.63;1.35;;;6.30;99.90;;;;;;5099764;28;20053;-75
2023/10/15 03:20:24;;;;;;;8.75;1.55;;;6.30;99.90;;;;;;5100016;28;20020;-75
2023/10/15 03:22:58;;;;;;;5.10;1.02;;;6.30;99.90;;;;;;5101332;28;20518;-78
2023/10/15 03:25:25;;;;;;;9.98;1.27;;;6.30;99.90;;;;;;5101555;28;20031;-75
2023/10/15 03:27:54;;;;;;;4.68;1.13;;;6.30;99.90;;;;;;5101139;28;20024;-77
2023/10/15 03:30:23;;;;;;;8.50;1.17;;;6.30;99.90;;;;;;5101139;28;20047;-77
2023/10/15 03:32:52;;;;;;;4.82;1.30;;;6.30;99.90;;;;;;5100045;28;20054;-77
2023/10/15 03:35:32;;;;;;;7.50;1.63;;;6.30;99.90;;;;;;5100552;28;20020;-76
2023/10/15 03:38:04;;;;;;;9.98;1.33;;;6.30;99.90;;;;;;5098470;28;20047;-76
2023/10/15 03:40:31;;;;;;;6.63;1.15;;;6.30;99.90;;;;;;5099402;28;20024;-75
2023/10/15 03:43:03;;;;;;;11.95;1.70;;;6.30;99.90;;;;;;5100249;28;20088;-77
2023/10/15 03:45:29;;;;;;;6.00;1.25;;;6.40;99.90;;;;;;5099128;28;20058;-76
2023/10/15 03:47:57;;;;;;;8.20;1.50;;;6.20;99.90;;;;;;5099856;28;20024;-76
2023/10/15 03:50:28;;;;;;;5.00;1.08;;;6.30;99.90;;;;;;5100058;28;20432;-78
2023/10/15 03:52:56;;;;;;;7.30;1.48;;;6.30;99.90;;;;;;5098916;28;20370;-77
2023/10/15 03:55:22;;;;;;;6.78;1.38;;;6.30;99.90;;;;;;5099630;28;20044;-77
2023/10/15 03:57:51;;;;;;;27.67;7.50;;;6.30;99.90;;;;;;5101453;28;20051;-76
2023/10/15 04:00:26;;;;;;;11.77;3.58;;;6.40;99.90;;;;;;5098668;28;20036;-77
2023/10/15 04:05:28;;;;;;;9.20;1.00;;;6.50;99.90;;;;;;5098185;28;20032;-77
2023/10/15 04:07:53;;;;;;;5.75;0.90;;;6.40;99.90;;;;;;5099948;28;20063;-78
2023/10/15 04:10:23;;;;;;;4.18;0.90;;;6.30;99.90;;;;;;5100296;28;20032;-72
2023/10/15 04:12:49;;;;;;;3.78;0.80;;;6.30;99.90;;;;;;5100401;28;20029;-71
2023/10/15 04:15:22;;;;;;;5.43;0.73;;;6.30;99.90;;;;;;5101571;28;20024;-79
2023/10/15 04:17:51;;;;;;;14.32;1.08;;;6.30;99.90;;;;;;5103890;28;20426;-73
2023/10/15 04:20:34;;;;;;;5.30;0.95;;;6.30;99.90;;;;;;5103255;28;20024;-75
2023/10/15 04:23:01;;;;;;;8.02;1.00;;;6.20;99.90;;;;;;5105384;28;20050;-75
2023/10/15 04:25:32;;;;;;;2.92;0.50;;;6.30;99.90;;;;;;5104506;28;20464;-72
2023/10/15 04:28:08;;;;;;;6.40;0.80;;;6.30;99.90;;;;;;5105574;28;20057;-79
2023/10/15 04:30:38;;;;;;;9.45;1.05;;;6.20;99.90;;;;;;5105009;28;20048;-77
2023/10/15 04:33:10;;;;;;;5.97;0.63;;;6.20;99.90;;;;;;5105608;28;20028;-80
2023/10/15 04:35:37;;;;;;;4.55;0.63;;;6.30;99.90;;;;;;5104902;28;20030;-76
2023/10/15 04:38:07;;;;;;;5.43;0.85;;;6.20;99.90;;;;;;5104271;28;20032;-76
2023/10/15 04:43:41;;;;;;;5.78;0.90;;;6.20;99.90;;;;;;5097836;28;20032;-78
2023/10/15 04:46:07;;;;;;;6.85;0.70;;;6.30;99.90;;;;;;5105058;28;20453;-76
2023/10/15 04:48:36;;;;;;;3.95;0.57;;;6.30;99.90;;;;;;5103401;28;20032;-75
2023/10/15 04:51:12;;;;;;;4.50;0.85;;;6.30;99.90;;;;;;5104986;28;20053;-75
2023/10/15 04:53:39;;;;;;;7.78;0.95;;;6.30;99.90;;;;;;5105092;28;20043;-77
2023/10/15 04:56:04;;;;;;;3.63;0.80;;;6.30;99.90;;;;;;5104469;28;20055;-78
2023/10/15 04:58:30;;;;;;;3.13;0.95;;;6.30;99.90;;;;;;5103370;28;20025;-78
2023/10/15 05:00:58;;;;;;;5.35;0.88;;;6.30;99.90;;;;;;5105282;28;20020;-79
2023/10/15 05:03:25;;;;;;;6.70;0.82;;;6.20;99.90;;;;;;5102793;28;20397;-79
2023/10/15 05:05:51;;;;;;;6.85;0.82;;;6.20;99.90;;;;;;5104895;28;21609;-73
2023/10/15 05:08:17;;;;;;;6.82;0.77;;;6.20;99.90;;;;;;5102976;28;20088;-74
2023/10/15 05:10:50;;;;;;;5.97;0.75;;;6.20;99.90;;;;;;5104294;28;20023;-78
2023/10/15 05:13:16;;;;;;;1.50;0.50;;;6.20;99.90;;;;;;5103585;28;20030;-78
2023/10/15 05:15:45;;;;;;;3.17;0.60;;;6.30;99.90;;;;;;5103409;28;20130;-75
2023/10/15 05:18:11;;;;;;;4.20;0.52;;;6.20;99.90;;;;;;5103973;28;20480;-73
2023/10/15 05:20:36;;;;;;;5.70;0.70;;;6.20;99.90;;;;;;5102481;28;20119;-74
2023/10/15 05:23:05;;;;;;;6.13;0.68;;;6.30;99.90;;;;;;5104423;28;20028;-74
2023/10/15 05:25:30;;;;;;;4.55;0.57;;;6.20;99.90;;;;;;5102491;28;20016;-75
2023/10/15 05:27:57;;;;;;;4.00;0.50;;;6.20;99.90;;;;;;5104418;28;20020;-76
2023/10/15 05:30:22;;;;;;;4.30;0.40;;;6.20;99.90;;;;;;5104198;28;20091;-71
2023/10/15 05:32:48;;;;;;;4.47;0.70;;;6.20;99.90;;;;;;5103523;28;20055;-73
2023/10/15 05:35:17;;;;;;;4.50;0.68;;;6.10;99.90;;;;;;5104162;28;20020;-73
2023/10/15 05:37:44;;;;;;;5.55;0.50;;;6.10;99.90;;;;;;5103549;28;20017;-71
2023/10/15 05:40:12;;;;;;;4.03;0.82;;;6.10;99.90;;;;;;5103278;28;20047;-71
2023/10/15 05:42:38;;;;;;;3.17;0.50;;;6.10;99.90;;;;;;5103221;28;20024;-75
2023/10/15 05:45:07;;;;;;;5.60;0.82;;;6.10;99.90;;;;;;5102653;28;20445;-73
2023/10/15 05:47:37;;;;;;;4.90;0.70;;;6.00;99.90;;;;;;5102318;28;20050;-73
2023/10/15 05:50:06;;;;;;;3.00;0.70;;;6.10;99.90;;;;;;5102796;28;20095;-73
2023/10/15 05:52:32;;;;;;;5.43;0.68;;;6.10;99.90;;;;;;5103210;28;20406;-72
2023/10/15 05:55:00;;;;;;;2.88;0.50;;;6.00;99.90;;;;;;5102076;28;20084;-73
2023/10/15 05:57:25;;;;;;;4.47;0.73;;;6.00;99.90;;;;;;5098891;28;20028;-75
2023/10/15 05:59:51;;;;;;;1.52;0.65;;;6.10;99.90;;;;;;5102130;28;20097;-73
2023/10/15 06:02:17;;;;;;;2.17;0.50;;;6.00;99.90;;;;;;5103204;28;20072;-72
2023/10/15 06:04:43;;;;;;;6.20;0.60;;;6.00;99.90;;;;;;5103317;28;20028;-75
2023/10/15 06:07:10;;;;;;;1.98;0.40;;;6.00;99.90;;;;;;5101229;28;20028;-75
2023/10/15 06:09:36;;;;;;;3.17;0.77;;;6.00;99.90;;;;;;5103463;28;20035;-74
2023/10/15 06:12:01;;;;;;;4.00;0.50;;;6.00;99.90;;;;;;5103747;28;20020;-75
2023/10/15 06:14:30;;;;;;;3.00;0.50;;;6.10;99.90;;;;;;5101899;28;20050;-77
2023/10/15 06:16:56;;;;;;;2.45;0.73;;;6.10;99.90;;;;;;5102241;28;20028;-73
2023/10/15 06:19:22;;;;;;;4.47;0.73;;;6.10;99.90;;;;;;5102253;28;20032;-73
2023/10/15 06:21:48;;;;;;;4.78;0.95;;;6.00;99.90;;;;;;5101089;28;20498;-74
2023/10/15 06:24:14;;;;;;;3.88;0.80;;;6.10;99.90;;;;;;5099396;28;20035;-72
2023/10/15 06:26:40;;;;;;;7.15;1.15;;;6.20;99.90;;;;;;5100707;28;20105;-74
2023/10/15 06:29:06;;;;;;;9.15;0.85;;;6.10;99.90;;;;;;5100932;28;20032;-75
2023/10/15 06:31:32;;;;;;;3.55;0.75;;;6.20;99.90;;;;;;5100619;28;20028;-74
2023/10/15 06:33:57;;;;;;;2.58;0.82;;;6.20;99.90;;;;;;5102777;28;20049;-73
2023/10/15 06:36:23;;;;;;;3.50;0.82;;;6.20;99.90;;;;;;5102016;28;20040;-76
2023/10/15 06:38:52;;;;;;;4.00;1.02;;;6.30;99.90;;;;;;5100895;28;20093;-74
2023/10/15 06:41:17;;;;;;;5.15;1.08;;;6.20;99.90;;;;;;5102194;28;20047;-76
2023/10/15 06:43:43;;;;;;;16.75;6.82;;;6.20;99.90;;;;;;5102511;28;20039;-75
2023/10/15 06:46:09;;;;;;;7.47;2.10;;;6.30;99.90;;;;;;5102992;28;20020;-74
2023/10/15 06:48:35;;;;;;;4.18;1.48;;;6.20;99.90;;;;;;5102583;28;20055;-73
2023/10/15 06:51:07;;;;;;;4.07;1.10;;;6.30;99.90;;;;;;5102871;28;20024;-74
2023/10/15 06:53:37;;;;;;;4.78;1.38;;;6.20;99.90;;;;;;5100103;28;20381;-71
2023/10/15 06:56:06;;;;;;;3.70;0.88;;;6.20;99.90;;;;;;5101832;28;20052;-75
2023/10/15 06:58:38;;;;;;;5.07;1.27;;;6.20;99.90;;;;;;5100710;28;20036;-77
2023/10/15 07:01:06;;;;;;;3.67;0.93;;;6.20;99.90;;;;;;5101362;28;20027;-72
2023/10/15 07:03:33;;;;;;;6.07;0.95;;;6.20;99.90;;;;;;5098852;28;20472;-74
2023/10/15 07:05:58;;;;;;;4.40;0.85;;;6.20;99.90;;;;;;5099820;28;20020;-74
2023/10/15 07:08:25;;;;;;;8.15;1.00;;;6.20;99.90;;;;;;5101443;28;20088;-75
2023/10/15 07:10:50;;;;;;;4.68;1.08;;;6.20;99.90;;;;;;5100399;28;20062;-74
2023/10/15 07:13:18;;;;;;;4.13;0.73;;;6.20;99.90;;;;;;5101198;28;20028;-73
2023/10/15 07:15:45;;;;;;;5.25;1.08;;;6.20;99.90;;;;;;5102013;28;20032;-73
2023/10/15 07:18:11;;;;;;;1.08;0.57;;;6.20;99.90;;;;;;5100165;28;20081;-77
2023/10/15 07:20:38;;;;;;;3.97;0.50;;;6.20;99.90;;;;;;5101823;28;20366;-76
2023/10/15 07:23:03;;;;;;;4.65;1.20;;;6.10;99.90;;;;;;5100563;28;20094;-76
2023/10/15 07:25:29;;;;;;;2.10;0.50;;;6.10;99.90;;;;;;5101946;28;20020;-73
2023/10/15 07:28:00;;;;;;;1.45;0.60;;;6.10;99.90;;;;;;5101059;28;20028;-76
2023/10/15 07:30:26;;;;;;;5.50;0.77;;;6.20;99.90;;;;;;5100711;28;20025;-76
2023/10/15 07:32:58;;;;;;;2.55;0.60;;;6.10;99.90;;;;;;5102275;28;20034;-78
2023/10/15 07:35:26;;;;;;;2.40;0.57;;;6.00;99.90;;;;;;5097591;28;20024;-74
2023/10/15 07:37:52;;;;;;;3.55;0.68;;;6.00;99.90;;;;;;5100425;28;20048;-75
2023/10/15 07:40:25;;;;;;;1.88;0.70;;;6.10;99.90;;;;;;5101629;28;20031;-72
2023/10/15 07:42:59;;;;;;;1.23;0.60;;;6.10;99.90;;;;;;5102122;28;20013;-74
2023/10/15 07:45:27;;;;;;;4.10;0.52;;;6.20;99.90;;;;;;5101624;28;20063;-75
2023/10/15 07:47:54;;;;;;;2.20;0.75;;;6.30;99.90;;;;;;5101729;28;20088;-76
2023/10/15 07:50:26;;;;;;;2.30;0.70;;;6.40;99.90;;;;;;5103389;28;20042;-77
2023/10/15 07:52:52;;;;;;;7.10;1.38;;;6.40;99.90;;;;;;5105893;28;20024;-77
2023/10/15 07:55:18;;;;;;;2.40;0.90;;;6.40;99.90;;;;;;5104605;28;20055;-75
2023/10/15 07:57:46;;;;;;;21.92;9.18;;;6.40;99.90;;;;;;5105885;28;20024;-73
2023/10/15 08:00:16;;;;;;;3.53;1.00;;;6.50;99.90;;;;;;5104257;28;20050;-75
2023/10/15 08:02:45;;;;;;;8.27;2.30;;;6.40;99.90;;;;;;5105506;28;20016;-75
2023/10/15 08:05:12;;;;;;;4.68;0.90;;;6.40;99.90;;;;;;5102455;28;20024;-73
2023/10/15 08:07:41;;;;;;;4.18;0.95;;;6.40;99.90;;;;;;5105688;28;20075;-75
2023/10/15 08:10:07;;;;;;;8.40;1.20;;;6.40;99.90;;;;;;5104430;28;20111;-74
2023/10/15 08:12:32;;;;;;;7.18;1.00;;;6.40;99.90;;;;;;5105679;28;20045;-75
2023/10/15 08:14:58;;;;;;;7.53;1.58;;;6.40;99.90;;;;;;5104530;28;20056;-74
2023/10/15 08:17:24;;;;;;;4.85;1.15;;;6.40;99.90;;;;;;5105886;28;20024;-72
2023/10/15 08:19:51;;;;;;;3.38;1.00;;;6.40;99.90;;;;;;5105109;28;20090;-73
2023/10/15 08:22:16;;;;;;;10.48;1.10;;;6.40;99.90;;;;;;5104738;28;20477;-73
2023/10/15 08:24:42;;;;;;;3.28;1.20;;;6.40;99.90;;;;;;5104798;28;20043;-73
2023/10/15 08:27:08;;;;;;;7.05;2.15;;;6.40;99.90;;;;;;5105187;28;20036;-76
2023/10/15 08:29:33;;;;;;;4.00;1.50;;;6.30;99.90;;;;;;5105365;28;20024;-74
2023/10/15 08:31:59;;;;;;;4.28;1.05;;;6.30;99.90;;;;;;5105533;28;20016;-77
2023/10/15 08:34:25;;;;;;;4.57;0.98;;;6.20;99.90;;;;;;5105076;28;20025;-75
2023/10/15 08:36:50;;;;;;;2.47;1.17;;;6.30;99.90;;;;;;5105653;28;20067;-74
2023/10/15 08:39:16;;;;;;;3.90;1.15;;;6.30;99.90;;;;;;5099957;28;20043;-74
2023/10/15 08:41:45;;;;;;;5.88;0.93;;;6.30;99.90;;;;;;5103662;28;20111;-75
2023/10/15 08:44:12;;;;;;;3.15;1.20;;;6.30;99.90;;;;;;5103908;28;20021;-75
2023/10/15 08:46:41;;;;;;;7.82;1.60;;;6.40;99.90;;;;;;5104478;28;20032;-76
2023/10/15 08:49:11;;;;;;;3.75;1.00;;;6.40;99.90;;;;;;5103254;28;20530;-75
2023/10/15 08:51:37;;;;;;;10.30;1.50;;;6.50;99.90;;;;;;5104877;28;20057;-73
2023/10/15 08:54:04;;;;;;;8.77;1.98;;;6.50;99.90;;;;;;5103133;28;20047;-75
2023/10/15 08:56:34;;;;;;;1.70;0.95;;;6.50;99.90;;;;;;5103642;28;20039;-77
2023/10/15 08:59:00;;;;;;;3.85;1.00;;;6.50;99.90;;;;;;5104564;28;20075;-76
2023/10/15 09:01:26;;;;;;;5.28;0.98;;;6.50;99.90;;;;;;5101898;28;20031;-76
2023/10/15 09:03:52;;;;;;;4.00;1.42;;;6.60;99.90;;;;;;5117791;28;20028;-77
2023/10/15 09:06:22;;;;;;;3.45;1.25;;;6.80;99.90;;;;;;5104375;28;20022;-75
2023/10/15 09:08:50;;;;;;;2.90;1.27;;;6.80;99.90;;;;;;5103891;28;20023;-77
2023/10/15 09:11:16;;;;;;;7.32;0.98;;;6.80;99.90;;;;;;5102603;28;20433;-75
2023/10/15 09:13:42;;;;;;;27.05;10.38;;;6.90;99.90;;;;;;5104512;28;20461;-76
2023/10/15 09:16:08;;;;;;;12.48;3.90;;;7.00;99.90;;;;;;5103008;28;20024;-76
2023/10/15 09:18:35;;;;;;;7.78;2.17;;;7.00;99.90;;;;;;5104022;28;20032;-73
2023/10/15 09:21:03;;;;;;;3.15;1.17;;;7.20;99.90;;;;;;5104744;28;20025;-76
2023/10/15 09:23:37;;;;;;;1.98;1.00;;;7.40;99.90;;;;;;5103951;28;20058;-76
2023/10/15 09:26:06;;;;;;;4.23;1.57;;;7.40;99.90;;;;;;5101838;28;20036;-76
2023/10/15 09:28:33;;;;;;;4.18;1.17;;;7.60;99.90;;;;;;5101948;28;20405;-77
2023/10/15 09:31:06;;;;;;;6.15;0.80;;;7.60;99.90;;;;;;5103393;28;20109;-76
2023/10/15 09:33:33;;;;;;;4.72;1.10;;;7.80;99.90;;;;;;5102976;28;20028;-79
2023/10/15 09:35:59;;;;;;;2.65;1.00;;;7.90;99.90;;;;;;5102486;28;20027;-73
2023/10/15 09:38:25;;;;;;;3.90;1.30;;;8.00;99.90;;;;;;5102647;28;20043;-74
2023/10/15 09:40:56;;;;;;;9.45;1.50;;;8.10;99.90;;;;;;5103020;28;20043;-77
2023/10/15 09:43:24;;;;;;;4.25;1.42;;;8.20;99.90;;;;;;5103235;28;20476;-78
2023/10/15 09:45:54;;;;;;;3.78;0.80;;;8.50;99.90;;;;;;5103877;28;20024;-76
2023/10/15 09:48:26;;;;;;;4.07;1.00;;;8.50;99.90;;;;;;5103660;28;20471;-75
2023/10/15 09:50:56;;;;;;;2.92;0.68;;;8.60;99.90;;;;;;5103201;28;20107;-74
2023/10/15 09:53:23;;;;;;;4.22;1.10;;;8.80;99.90;;;;;;5103786;28;20024;-78
2023/10/15 09:55:51;;;;;;;3.15;1.17;;;8.80;99.90;;;;;;5103273;28;20117;-77
2023/10/15 09:58:17;;;;;;;3.53;0.73;;;8.90;99.90;;;;;;5102183;28;20036;-76
2023/10/15 10:01:07;;;;;;;8.75;2.88;;;8.90;99.90;;;;;;5102378;28;20470;-73
2023/10/15 10:03:49;;;;;;;4.90;0.93;;;8.90;99.90;;;;;;5103341;28;20013;-70
2023/10/15 10:06:53;;;;;;;7.70;1.30;;;8.80;99.90;;;;;;5103799;28;20024;-72
2023/10/15 10:09:56;;;;;;;2.10;0.80;;;8.80;99.90;;;;;;5102171;28;20024;-73
2023/10/15 10:12:43;;;;;;;5.95;1.67;;;8.80;99.90;;;;;;5099221;28;20044;-71
2023/10/15 10:15:42;;;;;;;4.25;1.10;;;8.90;99.90;;;;;;5103418;28;20032;-77
2023/10/15 10:18:08;;;;;;;3.75;1.02;;;8.90;99.90;;;;;;5101271;28;20032;-75
2023/10/15 10:20:37;;;;;;;8.07;1.30;;;9.00;99.90;;;;;;5101013;28;20068;-72
2023/10/15 10:23:06;;;;;;;4.72;1.20;;;9.10;99.90;;;;;;5102887;28;20083;-75
2023/10/15 10:25:39;;;;;;;4.25;1.00;;;9.10;99.90;;;;;;5101357;28;20089;-71
2023/10/15 10:28:10;;;;;;;4.38;1.27;;;9.30;99.90;;;;;;5101803;28;20062;-74
2023/10/15 10:30:37;;;;;;;4.43;1.10;;;9.40;99.90;;;;;;5100886;28;20028;-73
2023/10/15 10:33:04;;;;;;;4.13;1.17;;;9.40;99.90;;;;;;5101527;28;20035;-72
2023/10/15 10:35:45;;;;;;;2.63;1.02;;;9.40;99.90;;;;;;5101814;28;20024;-72
2023/10/15 10:38:18;;;;;;;1.92;0.63;;;9.40;99.90;;;;;;5101368;28;20081;-73
2023/10/15 10:40:59;;;;;;;4.38;0.93;;;9.50;99.90;;;;;;5101742;28;20040;-70
2023/10/15 10:43:26;;;;;;;4.13;0.93;;;9.50;99.90;;;;;;5102703;28;20032;-74
2023/10/15 10:46:00;;;;;;;2.60;0.75;;;9.60;99.90;;;;;;5102525;28;20027;-71
2023/10/15 10:48:27;;;;;;;1.73;1.05;;;9.70;99.90;;;;;;5101279;28;20115;-71
2023/10/15 10:51:11;;;;;;;2.80;1.35;;;9.80;99.90;;;;;;5102633;28;20039;-73
2023/10/15 10:53:57;;;;;;;3.78;0.90;;;9.80;99.90;;;;;;5102056;28;20469;-76
2023/10/15 10:56:25;;;;;;;4.40;0.88;;;9.90;99.90;;;;;;5100748;28;20034;-74
2023/10/15 10:58:57;;;;;;;3.45;0.75;;;10.00;99.90;;;;;;5101921;28;20496;-73
2023/10/15 11:01:23;;;;;;;7.10;0.90;;;10.00;99.90;;;;;;5101890;28;20027;-73
2023/10/15 11:03:53;;;;;;;2.10;0.77;;;10.10;99.90;;;;;;5102406;28;20098;-75
2023/10/15 11:06:19;;;;;;;4.63;1.10;;;10.20;99.90;;;;;;5102257;28;20107;-69
2023/10/15 11:08:50;;;;;;;1.65;0.55;;;10.40;99.90;;;;;;5101073;28;20071;-71
2023/10/15 11:11:19;;;;;;;4.97;0.75;;;10.30;99.90;;;;;;5101140;28;20028;-77
2023/10/15 11:13:47;;;;;;;4.00;0.80;;;10.50;99.90;;;;;;5102074;28;20043;-73
2023/10/15 11:16:13;;;;;;;1.67;0.65;;;10.50;99.90;;;;;;5101912;28;20013;-73
2023/10/15 11:18:39;;;;;;;4.30;1.08;;;10.40;99.90;;;;;;5101927;28;20514;-74
2023/10/15 11:21:07;;;;;;;4.68;1.00;;;10.20;99.90;;;;;;5102065;28;20058;-69
2023/10/15 11:23:33;;;;;;;2.80;0.52;;;10.20;99.90;;;;;;5102315;28;20066;-73
2023/10/15 11:25:59;;;;;;;2.92;0.60;;;10.10;99.90;;;;;;5102153;28;20071;-74
2023/10/15 11:28:25;;;;;;;5.32;0.98;;;10.00;99.90;;;;;;5102138;28;20049;-73
2023/10/15 11:30:53;;;;;;;3.25;0.90;;;10.00;99.90;;;;;;5100960;28;20051;-72
2023/10/15 11:33:19;;;;;;;3.38;1.10;;;10.10;99.90;;;;;;5101519;28;20024;-78
2023/10/15 11:35:53;;;;;;;5.30;0.63;;;10.20;99.90;;;;;;5100587;28;20032;-73
2023/10/15 11:38:20;;;;;;;2.50;0.80;;;10.20;99.90;;;;;;5101972;28;20126;-72
2023/10/15 11:40:46;;;;;;;2.95;0.80;;;10.10;99.90;;;;;;5100369;28;20024;-77
2023/10/15 11:43:17;;;;;;;4.93;1.05;;;10.20;99.90;;;;;;5101767;28;20085;-74
2023/10/15 11:45:46;;;;;;;3.08;0.90;;;10.10;99.90;;;;;;5102096;28;20027;-72
2023/10/15 11:48:13;;;;;;;2.97;0.80;;;10.20;99.90;;;;;;5101604;28;20039;-77
2023/10/15 11:50:40;;;;;;;5.13;1.00;;;10.40;99.90;;;;;;5100659;28;20020;-76
2023/10/15 11:53:16;;;;;;;5.30;1.38;;;10.40;99.90;;;;;;5101250;28;20031;-74
2023/10/15 11:55:47;;;;;;;1.83;0.80;;;10.70;99.90;;;;;;5101398;28;20070;-78
2023/10/15 11:58:16;;;;;;;7.32;0.90;;;10.80;99.90;;;;;;5100605;28;20174;-73
2023/10/15 12:00:43;;;;;;;4.78;0.88;;;11.10;99.90;;;;;;5101361;28;20027;-74
2023/10/15 12:03:09;;;;;;;2.25;0.65;;;11.30;99.90;;;;;;5101587;28;20052;-80
2023/10/15 12:05:38;;;;;;;2.95;0.70;;;11.60;99.90;;;;;;5099817;28;20024;-72
2023/10/15 12:08:04;;;;;;;4.53;0.82;;;11.80;99.90;;;;;;5099922;28;20024;-77
2023/10/15 12:10:31;;;;;;;5.85;1.20;;;12.10;99.90;;;;;;5100785;28;21050;-75
2023/10/15 12:12:58;;;;;;;4.78;1.52;;;12.40;99.90;;;;;;5101214;28;20045;-77
2023/10/15 12:15:25;;;;;;;4.65;1.02;;;12.60;99.90;;;;;;5100438;28;20057;-75
2023/10/15 12:17:51;;;;;;;5.75;1.40;;;12.70;99.90;;;;;;5101934;28;20102;-71
2023/10/15 12:20:17;;;;;;;3.20;1.00;;;12.90;99.90;;;;;;5101280;28;20059;-75
2023/10/15 12:22:43;;;;;;;5.80;0.98;;;13.00;99.90;;;;;;5101700;28;20036;-78
2023/10/15 12:25:09;;;;;;;2.35;0.68;;;13.00;99.90;;;;;;5099840;28;20024;-74
2023/10/15 12:27:36;;;;;;;3.20;0.82;;;13.00;99.90;;;;;;5099815;28;20048;-77
2023/10/15 12:30:06;;;;;;;4.88;1.00;;;13.00;99.90;;;;;;5101141;28;20075;-74
2023/10/15 12:32:31;;;;;;;4.63;0.70;;;12.90;99.90;;;;;;5101272;28;20020;-75
2023/10/15 12:34:58;;;;;;;5.90;0.95;;;12.90;99.90;;;;;;5101512;28;20065;-77
2023/10/15 12:37:24;;;;;;;4.88;0.93;;;12.60;99.90;;;;;;5104599;28;20020;-77
2023/10/15 12:39:52;;;;;;;2.83;0.80;;;12.50;99.90;;;;;;5103847;28;20036;-75
2023/10/15 12:42:18;;;;;;;2.55;0.70;;;12.50;99.90;;;;;;5105059;28;20073;-78
2023/10/15 12:44:46;;;;;;;4.32;1.17;;;12.50;99.90;;;;;;5103946;28;20092;-71
2023/10/15 12:47:12;;;;;;;5.72;1.02;;;12.60;99.90;;;;;;5102498;28;20094;-80
2023/10/15 12:49:39;;;;;;;4.07;0.90;;;12.70;99.90;;;;;;5104722;28;20032;-75
2023/10/15 12:52:08;;;;;;;1.33;0.55;;;12.90;99.90;;;;;;5101084;28;20024;-75
2023/10/15 12:54:34;;;;;;;3.20;0.70;;;12.90;99.90;;;;;;5103792;28;20043;-76
2023/10/15 12:57:00;;;;;;;3.58;0.80;;;13.10;99.90;;;;;;5104187;28;20104;-75
2023/10/15 12:59:26;;;;;;;3.97;0.80;;;13.10;99.90;;;;;;5103840;28;20060;-74
2023/10/15 13:01:51;;;;;;;3.75;0.77;;;13.00;99.90;;;;;;5104667;28;20024;-75
2023/10/15 13:04:17;;;;;;;4.82;0.80;;;13.00;99.90;;;;;;5104421;28;20028;-71
2023/10/15 13:06:43;;;;;;;7.20;1.55;;;12.90;99.90;;;;;;5101115;28;20020;-73
2023/10/15 13:09:09;;;;;;;5.53;0.98;;;12.90;99.90;;;;;;5102333;28;20028;-80
2023/10/15 13:11:38;;;;;;;4.05;1.17;;;12.90;99.90;;;;;;5101701;28;20036;-72
2023/10/15 13:14:05;;;;;;;3.28;1.00;;;12.90;99.90;;;;;;5103612;28;20020;-75
2023/10/15 13:16:30;;;;;;;4.13;1.05;;;12.70;99.90;;;;;;5101648;28;20023;-77
2023/10/15 13:18:56;;;;;;;3.53;1.10;;;12.60;99.90;;;;;;5103064;28;20393;-75
2023/10/15 13:21:22;;;;;;;5.30;0.90;;;12.30;99.90;;;;;;5104420;28;20036;-69
2023/10/15 13:23:48;;;;;;;6.72;0.93;;;12.20;99.90;;;;;;5104047;28;20081;-72
2023/10/15 13:26:13;;;;;;;2.10;1.00;;;12.10;99.90;;;;;;5104491;28;20032;-71